map of CGQ home
Great Circle Mapper logo
CGQ - Airport
Location
City:  Changchun, Jilin, China
Name:Longjia International Airport
ICAO / IATA:ZYCC / CGQ

Details
Type:Airport (Aerodrome, Airfield)
Use:Public/Civil, International (customs port of entry)
Latitude:4359'46"N (43.996214)
Longitude:12541'07"E (125.685356)
Datum:WGS 1984
Elevation:706 ft (215 m)
Runways:1
Longest:10500 × 148 ft (3200 × 45 m), paved

Time
Time Zone:UTC+8
Local Time:

Weather
METAR:ZYCC 230800Z 11005MPS 9999 SCT026 FEW026CB 23/M04 Q1007 RETS NOSIG

Related Locations
Nearby:
Farthest:MJR: 11993 mi / 19300 km
Miramar, BA, AR

Find:

   beyond  
but within

Other Information
Maps:
NOTAMs:
Links:
Sources:

  
flag of China   

Sectional Chart

Flight Planning
at skyvector.com

Satellite Image

Google Maps Satellite View

 

Copyright © 2004-2014 Karl L. Swartz. All rights reserved.
The Great Circle Mapper name and logo are trademarks of the Great Circle Mapper.
All other trademarks mentioned herein belong to their respective owners.
Please see credits for attibutions and further copyright information.

  Follow gcmap on Facebook Follow gcmap on Twitter

hCard Microformat

Geo Microformat